Shipshewana, Indiana
Current Conditions -  °F | °C
As of 4:35 PM on Saturday 25 Oct 2014 (Local Time) from KIRS Reporting Station
Clear Clear  
Wind Chill: 66°   Ceiling: Unl
Heat Index: 66°   Visibility: 10mi
Dew Point: 32°   Wind: 17mph
Humidity: 28%   Direction: 280°W
Pressure: 29.85"   Gusts: 29mph
Location:  41.67°N, 85.58°W
Report Text: KIRS 252035Z AUTO 28015G25KT 10SM CLR 19/00 A2985 RMK AO2
Loading
Personal Weather Stations






























Interactive Weather Map
Tropical Storm Tracking
New forecast layout! Learn more

10-Day Weather Forecast

Advertisements
Track Severe Weather on mobile